»·PEaware :: UAL1739 KMCO-KCLE

UAL1739 :: KMCO-KCLE

FLIGHT INFORMATION

Flight Status: Arrived
Operator:
United Airlines
More flights by this operator :: More flights under this callsign
Pilot: Drew L. (13237)
Aircraft: BOEING 737-800
(B738)
More flights by this aircraft type
Origin: KMCO Orlando Intl
United States
Destination: KCLE Cleveland-Hopkins Intl
United States
More flights between these airports :: More routes between these airports
Route: JAG6 MATEO YULEE NOWAY/N0452F380 J81 DUNKN/N0452F370 J81 IRQ J53 SPA J85 HVQ LENRD KEATN
File this flight plan on PilotEdge
Remarks: PBN / A1B1C1D1S1S2 DOF / 180611 REG / N806SB EET / KZJX0000 KZTL0040 KZID0116 KZOB0149 OPR / UAL PER / C RMK / TCAS SIMBRIEF
Altitude:
(Current/Filed)
37,000ft
Speed:
(Current/Filed)
453kts
Departed: 11-Jun-18 12:15 PM
Arrived: 11-Jun-18 02:15 PM
Distance/Time
Traveled:
779nm/2:00
Distance/Time
To Go:
Arrived

Flight Plot

Page will automatically refresh every two minutes.

Flight plan parsing failed; only flown route is shown


Map Options




Map Legend


Flown Route
Filed Route
Departure Airport
Arrival Airport
Navaid (VOR, NDB)
Fix

Horizontal Profiles

Position Reports

Time Latitude Longitude Heading Altitude Ground
Speed
11-Jun-18 11:40 28.426768 -81.314092 332 103ft 0kts
11-Jun-18 11:41 28.426768 -81.314092 332 103ft 0kts
11-Jun-18 11:42 28.426768 -81.314092 332 103ft 0kts
11-Jun-18 11:43 28.426768 -81.314092 332 103ft 0kts
11-Jun-18 11:44 28.426768 -81.314092 332 103ft 0kts
11-Jun-18 11:45 28.426768 -81.314092 332 103ft 0kts
11-Jun-18 11:46 28.426768 -81.314092 332 103ft 0kts
11-Jun-18 11:47 28.426768 -81.314092 332 103ft 0kts
11-Jun-18 11:48 28.426768 -81.314092 332 103ft 0kts
11-Jun-18 11:49 28.426768 -81.314092 332 103ft 0kts
11-Jun-18 11:50 28.426768 -81.314092 332 103ft 0kts
11-Jun-18 11:51 28.426768 -81.314092 332 103ft 0kts
11-Jun-18 11:52 28.426768 -81.314092 332 103ft 0kts
11-Jun-18 11:53 28.426768 -81.314092 332 103ft 0kts
11-Jun-18 11:54 28.426768 -81.314092 332 103ft 0kts
11-Jun-18 11:55 28.426768 -81.314092 332 103ft 0kts
11-Jun-18 11:56 28.426768 -81.314092 332 103ft 0kts
11-Jun-18 11:57 28.426768 -81.314092 332 103ft 0kts
11-Jun-18 11:58 28.426768 -81.314092 332 104ft 0kts
11-Jun-18 11:59 28.426768 -81.314092 332 104ft 0kts
11-Jun-18 12:00 28.426768 -81.314092 332 104ft 0kts
11-Jun-18 12:01 28.426768 -81.314092 332 104ft 0kts
11-Jun-18 12:02 28.426768 -81.314092 332 104ft 0kts
11-Jun-18 12:03 28.426768 -81.314092 332 104ft 0kts
11-Jun-18 12:04 28.426768 -81.314092 332 104ft 0kts
11-Jun-18 12:05 28.426768 -81.314092 332 104ft 0kts
11-Jun-18 12:06 28.426768 -81.314092 332 104ft 0kts
11-Jun-18 12:07 28.426768 -81.314092 332 104ft 0kts
11-Jun-18 12:08 28.426768 -81.314092 332 104ft 0kts
11-Jun-18 12:09 28.426454 -81.313904 332 104ft 2kts
11-Jun-18 12:10 28.425926 -81.313587 332 104ft 2kts
11-Jun-18 12:11 28.425534 -81.313193 283 104ft 2kts
11-Jun-18 12:12 28.425541 -81.312943 257 104ft 0kts
11-Jun-18 12:13 28.425444 -81.313420 256 104ft 9kts
11-Jun-18 12:14 28.424144 -81.318324 358 104ft 22kts
11-Jun-18 12:15 28.435549 -81.318454 0 104ft 50kts
11-Jun-18 12:16 28.447960 -81.319126 331 104ft 32kts
11-Jun-18 12:17 28.440609 -81.322240 179 104ft 104kts
11-Jun-18 12:18 28.395628 -81.323072 179 1668ft 189kts
11-Jun-18 12:19 28.365398 -81.360618 280 3991ft 215kts
11-Jun-18 12:20 28.400178 -81.411979 348 6297ft 239kts
11-Jun-18 12:21 28.472433 -81.424958 350 7779ft 293kts
11-Jun-18 12:22 28.553881 -81.438966 349 10277ft 301kts
11-Jun-18 12:23 28.641918 -81.454216 349 12005ft 336kts
11-Jun-18 12:24 28.735485 -81.470397 349 14444ft 349kts
11-Jun-18 12:25 28.832713 -81.487271 349 16920ft 362kts
11-Jun-18 12:26 28.933462 -81.504776 349 19116ft 375kts
11-Jun-18 12:27 29.037039 -81.522792 349 21249ft 381kts
11-Jun-18 12:28 29.141751 -81.541065 350 23194ft 386kts
11-Jun-18 12:29 29.248910 -81.559777 350 24788ft 396kts
11-Jun-18 12:30 29.358408 -81.578936 350 26275ft 404kts
11-Jun-18 12:31 29.470225 -81.598540 350 27643ft 411kts
11-Jun-18 12:32 29.584149 -81.618557 350 28872ft 419kts
11-Jun-18 12:33 29.699694 -81.638901 350 30210ft 420kts
11-Jun-18 12:34 29.813763 -81.659014 350 31604ft 417kts
11-Jun-18 12:35 29.927630 -81.679159 350 32829ft 415kts
11-Jun-18 12:36 30.040668 -81.699203 350 33931ft 413kts
11-Jun-18 12:37 30.152597 -81.719095 350 34922ft 410kts
11-Jun-18 12:38 30.264739 -81.739069 350 35841ft 408kts
11-Jun-18 12:39 30.376088 -81.758948 350 36641ft 407kts
11-Jun-18 12:40 30.487684 -81.778922 350 37081ft 414kts
11-Jun-18 12:41 30.604179 -81.799120 350 37089ft 431kts
11-Jun-18 12:42 30.724195 -81.819227 0 37105ft 444kts
11-Jun-18 12:43 30.847515 -81.802478 6 37061ft 448kts
11-Jun-18 12:44 30.970542 -81.784230 6 37045ft 451kts
11-Jun-18 12:45 31.095002 -81.766061 6 37009ft 452kts
11-Jun-18 12:46 31.217591 -81.753351 351 37005ft 451kts
11-Jun-18 12:47 31.339206 -81.785432 346 37003ft 451kts
11-Jun-18 12:48 31.461078 -81.819541 346 37001ft 451kts
11-Jun-18 12:49 31.582486 -81.853581 346 37000ft 451kts
11-Jun-18 12:50 31.703838 -81.887648 346 36999ft 451kts
11-Jun-18 12:51 31.825727 -81.921895 346 36989ft 451kts
11-Jun-18 12:52 31.947266 -81.956064 346 36984ft 451kts
11-Jun-18 12:53 32.070969 -81.976482 354 36981ft 451kts
11-Jun-18 12:54 32.191689 -81.989941 354 36982ft 451kts
11-Jun-18 12:55 32.316284 -82.003876 354 36981ft 451kts
11-Jun-18 12:56 32.441175 -82.017871 354 36982ft 451kts
11-Jun-18 12:57 32.565374 -82.031821 354 36984ft 451kts
11-Jun-18 12:58 32.689940 -82.045854 354 36986ft 451kts
11-Jun-18 12:59 32.814693 -82.059951 354 36987ft 451kts
11-Jun-18 13:00 32.939305 -82.074070 354 36962ft 451kts
11-Jun-18 13:01 33.064910 -82.088327 353 36954ft 460kts
11-Jun-18 13:02 33.191304 -82.102725 354 36955ft 463kts
11-Jun-18 13:03 33.319176 -82.117286 354 36966ft 463kts
11-Jun-18 13:04 33.446633 -82.131815 354 36987ft 463kts
11-Jun-18 13:05 33.574678 -82.146422 354 36991ft 463kts
11-Jun-18 13:06 33.702473 -82.160703 357 36989ft 463kts
11-Jun-18 13:07 33.830085 -82.141810 8 36989ft 463kts
11-Jun-18 13:08 33.957169 -82.119139 8 37000ft 463kts
11-Jun-18 13:09 34.084208 -82.096547 8 37000ft 463kts
11-Jun-18 13:10 34.203287 -82.075361 8 37000ft 463kts
11-Jun-18 13:11 34.330537 -82.052730 8 36999ft 463kts
11-Jun-18 13:12 34.457359 -82.030176 8 36998ft 463kts
11-Jun-18 13:13 34.584565 -82.007553 8 36995ft 463kts
11-Jun-18 13:14 34.711498 -81.984977 8 36997ft 463kts
11-Jun-18 13:15 34.838795 -81.962331 8 36987ft 463kts
11-Jun-18 13:16 34.965383 -81.939756 6 36981ft 461kts
11-Jun-18 13:17 35.092272 -81.923691 0 36985ft 459kts
11-Jun-18 13:18 35.219298 -81.917936 0 37000ft 459kts
11-Jun-18 13:19 35.346483 -81.912163 0 37000ft 459kts
11-Jun-18 13:20 35.473742 -81.906361 0 37000ft 459kts
11-Jun-18 13:21 35.600966 -81.900548 0 37000ft 459kts
11-Jun-18 13:22 35.728175 -81.894720 0 37004ft 459kts
11-Jun-18 13:23 35.855742 -81.888853 0 37021ft 459kts
11-Jun-18 13:24 35.982790 -81.882985 0 37026ft 459kts
11-Jun-18 13:25 36.107954 -81.877181 0 37027ft 459kts
11-Jun-18 13:26 36.232520 -81.871384 0 37036ft 459kts
11-Jun-18 13:27 36.359774 -81.865443 0 37052ft 459kts
11-Jun-18 13:28 36.486910 -81.859494 0 37055ft 459kts
11-Jun-18 13:29 36.613878 -81.853543 0 37055ft 459kts
11-Jun-18 13:30 36.741099 -81.847564 0 37055ft 459kts
11-Jun-18 13:31 36.868095 -81.841588 0 37066ft 459kts
11-Jun-18 13:32 36.995106 -81.835598 359 37092ft 459kts
11-Jun-18 13:33 37.117454 -81.829783 358 37092ft 457kts
11-Jun-18 13:34 37.243822 -81.823830 358 37092ft 457kts
11-Jun-18 13:35 37.370542 -81.817866 358 37093ft 457kts
11-Jun-18 13:36 37.497114 -81.811907 358 37094ft 457kts
11-Jun-18 13:37 37.623642 -81.805911 358 37093ft 457kts
11-Jun-18 13:38 37.750033 -81.799736 358 37061ft 457kts
11-Jun-18 13:39 37.876937 -81.793519 358 37050ft 457kts
11-Jun-18 13:40 38.003504 -81.787327 358 37046ft 457kts
11-Jun-18 13:41 38.127609 -81.781235 358 37047ft 457kts
11-Jun-18 13:42 38.254163 -81.774995 358 37047ft 457kts
11-Jun-18 13:43 38.380778 -81.772316 352 37054ft 454kts
11-Jun-18 13:44 38.505870 -81.785872 351 37047ft 453kts
11-Jun-18 13:45 38.631550 -81.799835 351 37047ft 453kts
11-Jun-18 13:46 38.756296 -81.813712 351 37044ft 453kts
11-Jun-18 13:47 38.881389 -81.827626 351 37024ft 453kts
11-Jun-18 13:48 39.006394 -81.841480 349 37019ft 451kts
11-Jun-18 13:49 39.127815 -81.855032 349 37021ft 450kts
11-Jun-18 13:50 39.252392 -81.868956 349 37028ft 450kts
11-Jun-18 13:51 39.377082 -81.882868 349 37056ft 450kts
11-Jun-18 13:52 39.501166 -81.896720 349 37036ft 450kts
11-Jun-18 13:53 39.625536 -81.910599 349 37035ft 450kts
11-Jun-18 13:54 39.749935 -81.924476 349 37037ft 450kts
11-Jun-18 13:55 39.874733 -81.938419 349 37037ft 450kts
11-Jun-18 13:56 39.999104 -81.952295 349 37036ft 450kts
11-Jun-18 13:57 40.115257 -81.965265 349 37036ft 450kts
11-Jun-18 13:58 40.238015 -81.978879 349 35562ft 436kts
11-Jun-18 13:59 40.361631 -81.992748 352 26248ft 487kts
11-Jun-18 14:00 40.491457 -82.007484 356 17915ft 450kts
11-Jun-18 14:01 40.604002 -82.022143 353 12426ft 371kts
11-Jun-18 14:02 40.699618 -82.041452 353 10788ft 332kts
11-Jun-18 14:03 40.783944 -82.058545 353 9744ft 299kts
11-Jun-18 14:04 40.865269 -82.074942 353 8748ft 294kts
11-Jun-18 14:05 40.933440 -82.088689 353 7936ft 292kts
11-Jun-18 14:06 41.012323 -82.104644 353 6970ft 282kts
11-Jun-18 14:07 41.088637 -82.120102 353 6118ft 272kts
11-Jun-18 14:08 41.155400 -82.133726 353 6028ft 234kts
11-Jun-18 14:09 41.220396 -82.142065 19 6042ft 238kts
11-Jun-18 14:10 41.268251 -82.081748 50 4912ft 240kts
11-Jun-18 14:11 41.307532 -82.019682 51 3502ft 195kts
11-Jun-18 14:12 41.339853 -81.968356 52 2562ft 162kts
11-Jun-18 14:13 41.364503 -81.929410 52 1774ft 126kts
11-Jun-18 14:14 41.388165 -81.891968 52 1174ft 140kts
11-Jun-18 14:15 41.408265 -81.859731 77 799ft 31kts
11-Jun-18 14:16 41.410797 -81.850776 91 799ft 34kts
11-Jun-18 14:17 41.411374 -81.842321 85 799ft 0kts

Navigation Log

Ident Type
Flight plan parsing failed, navigation log unavailable